TimeMDT,TemperatureF,Dew PointF,Humidity,Sea Level PressureIn,VisibilityMPH,Wind Direction,Wind SpeedMPH,Gust SpeedMPH,PrecipitationIn,Events,Conditions,WindDirDegrees,DateUTC
12:04 AM,68.0,14.0,12,30.57,10.0,NNW,3.5,-,N/A,,Clear,340,2013-07-23 06:04:00
12:24 AM,68.0,14.0,12,30.56,10.0,Calm,Calm,-,N/A,,Clear,0,2013-07-23 06:24:00
12:44 AM,68.0,14.0,12,30.56,10.0,Calm,Calm,-,N/A,,Clear,0,2013-07-23 06:44:00
1:04 AM,66.2,12.2,12,30.56,10.0,Calm,Calm,-,N/A,,Clear,0,2013-07-23 07:04:00
1:24 AM,64.4,12.2,13,30.56,10.0,West,3.5,-,N/A,,Clear,270,2013-07-23 07:24:00
1:44 AM,66.2,14.0,13,30.56,10.0,Calm,Calm,-,N/A,,Clear,0,2013-07-23 07:44:00
2:04 AM,64.4,14.0,14,30.56,10.0,WNW,4.6,-,N/A,,Clear,290,2013-07-23 08:04:00
2:23 AM,64.4,14.0,14,30.55,10.0,WNW,3.5,-,N/A,,Clear,300,2013-07-23 08:23:00
2:43 AM,64.4,14.0,14,30.55,10.0,NW,3.5,-,N/A,,Clear,320,2013-07-23 08:43:00
3:04 AM,62.6,14.0,15,30.55,10.0,North,4.6,-,N/A,,Clear,350,2013-07-23 09:04:00
3:24 AM,60.8,14.0,16,30.55,10.0,NNE,4.6,-,N/A,,Clear,20,2013-07-23 09:24:00
3:44 AM,60.8,14.0,16,30.55,10.0,NNE,3.5,-,N/A,,Clear,30,2013-07-23 09:44:00
4:04 AM,60.8,14.0,16,30.55,10.0,NNE,3.5,-,N/A,,Clear,30,2013-07-23 10:04:00
4:23 AM,59.0,15.8,19,30.56,10.0,NNE,3.5,-,N/A,,Clear,30,2013-07-23 10:23:00
4:44 AM,59.0,15.8,19,30.56,10.0,NE,3.5,-,N/A,,Clear,40,2013-07-23 10:44:00
5:04 AM,59.0,14.0,17,30.56,10.0,NE,3.5,-,N/A,,Clear,40,2013-07-23 11:04:00
5:24 AM,59.0,12.2,16,30.56,10.0,Calm,Calm,-,N/A,,Clear,0,2013-07-23 11:24:00
5:44 AM,59.0,10.4,15,30.56,10.0,Calm,Calm,-,N/A,,Clear,0,2013-07-23 11:44:00
6:04 AM,59.0,10.4,15,30.57,10.0,Calm,Calm,-,N/A,,Clear,0,2013-07-23 12:04:00
6:24 AM,59.0,10.4,15,30.57,10.0,Calm,Calm,-,N/A,,Clear,0,2013-07-23 12:24:00
6:44 AM,59.0,10.4,15,30.57,10.0,Calm,Calm,-,N/A,,Clear,0,2013-07-23 12:44:00
7:04 AM,59.0,12.2,16,30.58,10.0,NE,3.5,-,N/A,,Clear,40,2013-07-23 13:04:00
7:23 AM,60.8,14.0,16,30.58,10.0,NE,4.6,-,N/A,,Clear,40,2013-07-23 13:23:00
7:43 AM,60.8,14.0,16,30.58,10.0,NNE,4.6,-,N/A,,Clear,30,2013-07-23 13:43:00
8:03 AM,62.6,12.2,14,30.58,10.0,NE,4.6,-,N/A,,Clear,40,2013-07-23 14:03:00
8:23 AM,60.8,14.0,16,30.59,10.0,NE,3.5,-,N/A,,Clear,40,2013-07-23 14:23:00
8:44 AM,62.6,14.0,15,30.59,10.0,NE,4.6,-,N/A,,Clear,40,2013-07-23 14:44:00
9:04 AM,64.4,14.0,14,30.60,10.0,NNE,4.6,-,N/A,,Clear,20,2013-07-23 15:04:00
9:24 AM,64.4,15.8,15,30.60,10.0,NNE,3.5,-,N/A,,Clear,30,2013-07-23 15:24:00
9:44 AM,66.2,23.0,19,30.61,10.0,North,3.5,-,N/A,,Clear,10,2013-07-23 15:44:00
10:04 AM,66.2,19.4,17,30.61,10.0,Calm,Calm,-,N/A,,Clear,0,2013-07-23 16:04:00
10:24 AM,68.0,21.2,17,30.61,10.0,Calm,Calm,-,N/A,,Clear,0,2013-07-23 16:24:00
10:35 AM,68.0,17.6,15,30.61,10.0,North,4.6,-,N/A,,Clear,350,2013-07-23 16:35:00
11:15 AM,69.8,19.4,15,30.62,10.0,WNW,4.6,-,N/A,,Clear,300,2013-07-23 17:15:00
11:35 AM,71.6,21.2,15,30.62,10.0,Calm,Calm,-,N/A,,Clear,0,2013-07-23 17:35:00
11:55 AM,71.6,23.0,16,30.62,10.0,Calm,Calm,-,N/A,,Clear,0,2013-07-23 17:55:00
12:15 PM,69.8,26.6,20,30.62,10.0,WNW,3.5,-,N/A,,Clear,300,2013-07-23 18:15:00
12:35 PM,71.6,23.0,16,30.62,10.0,Calm,Calm,-,N/A,,Clear,0,2013-07-23 18:35:00
12:54 PM,71.6,23.0,16,30.62,10.0,Calm,Calm,-,N/A,,Clear,0,2013-07-23 18:54:00
1:15 PM,73.4,23.0,15,30.61,10.0,Calm,Calm,-,N/A,,Clear,0,2013-07-23 19:15:00
1:35 PM,71.6,21.2,15,30.61,10.0,NW,3.5,-,N/A,,Clear,310,2013-07-23 19:35:00
1:54 PM,71.6,21.2,15,30.61,10.0,WNW,4.6,-,N/A,,Clear,300,2013-07-23 19:54:00
2:15 PM,71.6,21.2,15,30.60,10.0,Calm,Calm,-,N/A,,Clear,0,2013-07-23 20:15:00
2:34 PM,71.6,21.2,15,30.60,10.0,NNE,3.5,-,N/A,,Clear,30,2013-07-23 20:34:00
2:55 PM,71.6,23.0,16,30.60,10.0,Calm,Calm,-,N/A,,Clear,0,2013-07-23 20:55:00
3:15 PM,71.6,23.0,16,30.59,10.0,Calm,Calm,-,N/A,,Clear,0,2013-07-23 21:15:00
3:35 PM,73.4,21.2,14,30.59,10.0,WNW,3.5,-,N/A,,Clear,290,2013-07-23 21:35:00
3:55 PM,75.2,23.0,14,30.59,10.0,Calm,Calm,-,N/A,,Clear,0,2013-07-23 21:55:00
4:15 PM,75.2,21.2,13,30.59,10.0,NW,4.6,-,N/A,,Clear,320,2013-07-23 22:15:00
4:35 PM,73.4,21.2,14,30.58,10.0,Calm,Calm,-,N/A,,Clear,0,2013-07-23 22:35:00
4:55 PM,73.4,23.0,15,30.58,10.0,Calm,Calm,-,N/A,,Clear,0,2013-07-23 22:55:00
5:14 PM,73.4,23.0,15,30.58,10.0,NNW,6.9,-,N/A,,Clear,330,2013-07-23 23:14:00
5:35 PM,71.6,19.4,14,30.57,10.0,Calm,Calm,-,N/A,,Clear,0,2013-07-23 23:35:00
5:55 PM,71.6,23.0,16,30.57,10.0,Calm,Calm,-,N/A,,Clear,0,2013-07-23 23:55:00
6:15 PM,69.8,21.2,16,30.57,10.0,North,3.5,-,N/A,,Clear,350,2013-07-24 00:15:00
6:35 PM,69.8,21.2,16,30.56,10.0,NNW,4.6,-,N/A,,Clear,340,2013-07-24 00:35:00
6:54 PM,68.0,21.2,17,30.56,10.0,NW,5.8,-,N/A,,Clear,320,2013-07-24 00:54:00
7:15 PM,68.0,23.0,18,30.57,10.0,North,6.9,-,N/A,,Clear,10,2013-07-24 01:15:00
7:35 PM,68.0,19.4,16,30.57,10.0,North,5.8,-,N/A,,Clear,10,2013-07-24 01:35:00
7:55 PM,66.2,21.2,18,30.57,10.0,NNE,4.6,-,N/A,,Clear,30,2013-07-24 01:55:00
8:15 PM,64.4,19.4,18,30.58,10.0,Calm,Calm,-,N/A,,Clear,0,2013-07-24 02:15:00
8:35 PM,64.4,17.6,16,30.58,10.0,NE,3.5,-,N/A,,Clear,40,2013-07-24 02:35:00
8:54 PM,64.4,19.4,18,30.58,10.0,Calm,Calm,-,N/A,,Clear,0,2013-07-24 02:54:00
9:15 PM,64.4,17.6,16,30.59,10.0,Calm,Calm,-,N/A,,Clear,0,2013-07-24 03:15:00
9:35 PM,62.6,19.4,19,30.60,10.0,Calm,Calm,-,N/A,,Clear,0,2013-07-24 03:35:00
9:55 PM,62.6,19.4,19,30.61,10.0,Calm,Calm,-,N/A,,Clear,0,2013-07-24 03:55:00
10:15 PM,62.6,19.4,19,30.61,10.0,Calm,Calm,-,N/A,,Clear,0,2013-07-24 04:15:00
10:35 PM,62.6,19.4,19,30.61,10.0,ENE,3.5,-,N/A,,Clear,60,2013-07-24 04:35:00
10:55 PM,62.6,19.4,19,30.60,10.0,Calm,Calm,-,N/A,,Clear,0,2013-07-24 04:55:00
11:15 PM,64.4,19.4,18,30.60,10.0,Calm,Calm,-,N/A,,Clear,0,2013-07-24 05:15:00
11:35 PM,64.4,17.6,16,30.60,10.0,Calm,Calm,-,N/A,,Clear,0,2013-07-24 05:35:00
11:55 PM,64.4,19.4,18,30.60,10.0,SE,3.5,-,N/A,,Clear,140,2013-07-24 05:55:00